THF weather

CLOSED Berlin-Tempelhof International Airport
Berlin, Berlin, Germany

Public forecast

Using degrees Celsius for public forecast. Weather courtesy of forecast.io.

Closest aviation weather report (METAR) to Berlin-Tempelhof International Airport

Closest report is Berlin-Tegel Airport, 6.7 nm (12.4 km) NW. Retrieved 2020/06/02 01:20 UTC (14 minutes ago):

EDDT 020120Z 03004KT 350V060 CAVOK 13/06 Q1021

Closest aviation forecast (TAF) to Berlin-Tempelhof International Airport

Closest forecast is Berlin-Tegel Airport, 6.7 nm (12.4 km) NW. Retrieved 2020-06-02 00:27 UTC (1 hour ago):

TAF EDDT 012300Z 0200/0224 35005KT CAVOK